Prince Joy — V3TY7 — position and weather

sailwx.info

Track history (hours):
 
Tides and Currents Weather Stations Pressure Air Temp Water Temp Dewpoint Dewpoint Depression Visibility Wind Speed Wind Dir Waves Ship Positions

Prince Joy

Last reported at 2018-Jan-10 11:53 UTC. Time now 2018-Jan-21 07:10 UTC.
Position N 44°31' E 012°20'.
Warning: this ship's position is 10 days out of date.

Length 101 m; draft 4.7 m.

Type: Cargo ship. MMSI: 312341000.

Date/timePositionNaut miles runAvg speedWind from/ knotsBaromVisibWave heightAir tempDewpointWater temp
2018-Jan-10 11:53N 44°31' E 012°20'0 0.0
2018-Jan-10 07:32N 44°31' E 012°20'0 0.0
2018-Jan-10 07:27N 44°31' E 012°20'  
2018-Jan-06 04:53N 44°31' E 012°20'0 0.0
2018-Jan-06 01:53N 44°31' E 012°20'0 0.0
2018-Jan-05 23:53N 44°31' E 012°20'34 5.0
2018-Jan-05 16:58N 45°01' E 012°41'5 9.7
2018-Jan-05 16:30N 45°06' E 012°39'5 9.9
2018-Jan-05 16:00N 45°09' E 012°34'510.4
2018-Jan-05 15:30N 45°11' E 012°27'510.7
2018-Jan-05 14:59N 45°14' E 012°20'3 5.8
2018-Jan-05 14:30N 45°13' E 012°16'1 2.0
2018-Jan-05 13:58N 45°12' E 012°16'0 0.0
2018-Jan-05 13:28N 45°12' E 012°16'0 0.0
2018-Jan-05 12:58N 45°12' E 012°16'0 0.0
2018-Jan-05 12:28N 45°12' E 012°16'0 0.0
2018-Jan-05 11:58N 45°12' E 012°16'0 0.0
2018-Jan-05 11:28N 45°12' E 012°16'0 0.0
2018-Jan-05 10:58N 45°12' E 012°16'0 0.0
2018-Jan-05 10:29N 45°12' E 012°16'0 0.0
2018-Jan-05 09:59N 45°12' E 012°16'0 0.0
2018-Jan-05 09:28N 45°12' E 012°16'0 0.0
2018-Jan-05 08:58N 45°12' E 012°16'0 0.0
2018-Jan-05 08:28N 45°12' E 012°16'0 0.0
2018-Jan-05 07:58N 45°12' E 012°16'0 0.0
2018-Jan-05 07:28N 45°12' E 012°16'0 0.0
2018-Jan-05 06:58N 45°12' E 012°16'0 0.0
2018-Jan-05 06:28N 45°12' E 012°16'0 0.0
2018-Jan-05 05:58N 45°12' E 012°16'0 0.0
2018-Jan-05 05:28N 45°12' E 012°16'0 0.0
2018-Jan-05 04:58N 45°12' E 012°16'0 0.0
2018-Jan-05 04:28N 45°12' E 012°16'0 0.0
2018-Jan-05 03:58N 45°12' E 012°16'0 0.0
2018-Jan-05 03:28N 45°12' E 012°16'0 0.0
2018-Jan-05 02:58N 45°12' E 012°16'0 0.0
2018-Jan-05 02:28N 45°12' E 012°16'0 0.0
2018-Jan-05 01:58N 45°12' E 012°16'0 0.0
2018-Jan-05 01:28N 45°12' E 012°16'0 0.0
2018-Jan-05 00:58N 45°12' E 012°16'0 0.0
2018-Jan-05 00:28N 45°12' E 012°16'0 0.0
2018-Jan-04 23:58N 45°12' E 012°16'0 0.0
2018-Jan-04 23:28N 45°12' E 012°16'0 0.0
2018-Jan-04 22:58N 45°12' E 012°16'0 0.0
2018-Jan-04 22:28N 45°12' E 012°16'0 0.0
2018-Jan-04 21:58N 45°12' E 012°16'0 0.0
2018-Jan-04 21:25N 45°12' E 012°16'0 0.0
2018-Jan-04 20:55N 45°12' E 012°16'0 0.0
2018-Jan-04 20:22N 45°12' E 012°16'0 0.0
2018-Jan-04 19:55N 45°12' E 012°16'0 0.0
2018-Jan-04 19:28N 45°13' E 012°16'0 0.0
2018-Jan-04 18:58N 45°12' E 012°16'0 0.0
2018-Jan-04 18:28N 45°12' E 012°16'0 0.0
2018-Jan-04 17:55N 45°12' E 012°16'0 0.0
2018-Jan-04 17:25N 45°12' E 012°16'0 0.0
2018-Jan-04 16:55N 45°12' E 012°16'0 0.0
2018-Jan-04 16:28N 45°12' E 012°16'0 0.0
2018-Jan-04 15:58N 45°12' E 012°16'0 0.0
2018-Jan-04 15:28N 45°12' E 012°16'0 0.0
2018-Jan-04 14:58N 45°12' E 012°16'0 0.0
2018-Jan-04 13:55N 45°12' E 012°16'0 0.0
2018-Jan-04 13:16N 45°13' E 012°16'0 0.0
2018-Jan-04 12:52N 45°13' E 012°16'0 0.0
2018-Jan-04 12:28N 45°12' E 012°16'0 0.0
2018-Jan-04 11:58N 45°12' E 012°16'0 0.0
2018-Jan-04 11:28N 45°12' E 012°16'0 0.2
2018-Jan-04 11:00N 45°13' E 012°16'2 3.5
2018-Jan-04 10:29N 45°14' E 012°17'2 3.8
2018-Jan-04 10:00N 45°14' E 012°20'2 3.8
2018-Jan-04 09:30N 45°14' E 012°23'0 0.1
2018-Jan-04 09:00N 45°14' E 012°23'0 0.0
2018-Jan-04 08:27N 45°14' E 012°23'0 0.0
2018-Jan-04 07:48N 45°14' E 012°23'0 0.0
2018-Jan-04 07:30N 45°14' E 012°23'0 0.0
2018-Jan-04 07:00N 45°14' E 012°23'0 0.1
2018-Jan-04 06:30N 45°14' E 012°23'0 0.0
2018-Jan-04 06:00N 45°14' E 012°23'0 0.0
2018-Jan-04 05:30N 45°14' E 012°23'0 0.0
2018-Jan-04 04:54N 45°14' E 012°23'0 0.0
2018-Jan-04 04:30N 45°14' E 012°23'0 0.0
2018-Jan-04 04:00N 45°14' E 012°23'0 0.0
2018-Jan-04 03:27N 45°14' E 012°23'0 0.0
2018-Jan-04 03:00N 45°14' E 012°23'0 0.0
2018-Jan-04 02:30N 45°14' E 012°23'0 0.0
2018-Jan-04 01:57N 45°14' E 012°23'0 0.0
2018-Jan-04 01:30N 45°14' E 012°23'0 0.0
2018-Jan-04 00:57N 45°14' E 012°23'0 0.0
2018-Jan-04 00:24N 45°14' E 012°23'0 0.0
2018-Jan-03 23:54N 45°14' E 012°23'0 0.0
2018-Jan-03 23:30N 45°14' E 012°23'0 0.0
2018-Jan-03 23:00N 45°14' E 012°23'0 0.4
2018-Jan-03 22:30N 45°14' E 012°23'4 7.9
2018-Jan-03 22:00N 45°15' E 012°28'4 8.4
2018-Jan-03 21:30N 45°15' E 012°34'5 9.6
2018-Jan-03 21:00N 45°13' E 012°40'5 9.3
2018-Jan-03 20:30N 45°10' E 012°46'5 9.1
2018-Jan-03 20:00N 45°08' E 012°51'4 8.9
2018-Jan-03 19:30N 45°06' E 012°57'5 9.2
2018-Jan-03 19:00N 45°05' E 013°03'5 9.6
2018-Jan-03 18:30N 45°03' E 013°10'5 9.6
2018-Jan-03 18:00N 45°02' E 013°16'4 8.7
2018-Jan-03 17:30N 44°60' E 013°21'5 9.4
2018-Jan-03 17:00N 44°55' E 013°24'5 9.8
2018-Jan-03 16:30N 44°51' E 013°27'5 9.7
2018-Jan-03 16:00N 44°47' E 013°31'5 9.8
2018-Jan-03 15:30N 44°43' E 013°35'5 9.5
2018-Jan-03 15:00N 44°39' E 013°39'5 9.6
2018-Jan-03 14:30N 44°35' E 013°42'6 9.7
2018-Jan-03 13:53N 44°30' E 013°47'4 9.6
2018-Jan-03 13:30N 44°27' E 013°50'5 9.6
2018-Jan-03 13:00N 44°23' E 013°54'7 9.4
2018-Jan-03 12:17N 44°17' E 013°59'3 9.5
2018-Jan-03 12:00N 44°15' E 014°01'  
2018-Jan-01 03:26N 37°41' E 016°15'1410.2
2018-Jan-01 02:06N 37°30' E 016°04'210.4
2018-Jan-01 01:52N 37°29' E 016°02'88 9.6
2017-Dec-31 16:42N 36°26' E 014°44'2 9.4
2017-Dec-31 16:30N 36°25' E 014°42'5 9.5
2017-Dec-31 16:00N 36°22' E 014°37'5 9.4
2017-Dec-31 15:30N 36°20' E 014°32'5 9.3
2017-Dec-31 15:00N 36°17' E 014°27'5 9.4
2017-Dec-31 14:30N 36°15' E 014°23'5 9.1
2017-Dec-31 14:00N 36°12' E 014°18'5 8.8
2017-Dec-31 13:30N 36°10' E 014°13'4 8.7
2017-Dec-31 13:00N 36°08' E 014°09'4 8.5
2017-Dec-31 12:30N 36°05' E 014°04'4 8.7
2017-Dec-31 12:00N 36°02' E 014°00'  
Track history (hours):
 
Tides and Currents Weather Stations Pressure Air Temp Water Temp Dewpoint Dewpoint Depression Visibility Wind Speed Wind Dir Waves Ship Positions

Prince Joy

Last reported at 2018-Jan-10 11:53 UTC. Time now 2018-Jan-21 07:10 UTC.
Position N 44°31' E 012°20'.
Warning: this ship's position is 10 days out of date.

Length 101 m; draft 4.7 m.

Type: Cargo ship. MMSI: 312341000.

Date/timePositionNaut miles runAvg speedWind from/ knotsBaromVisibWave heightAir tempDewpointWater temp
2018-Jan-10 11:53N 44°31' E 012°20'0 0.0
2018-Jan-10 07:32N 44°31' E 012°20'0 0.0
2018-Jan-10 07:27N 44°31' E 012°20'  
2018-Jan-06 04:53N 44°31' E 012°20'0 0.0
2018-Jan-06 01:53N 44°31' E 012°20'0 0.0
2018-Jan-05 23:53N 44°31' E 012°20'34 5.0
2018-Jan-05 16:58N 45°01' E 012°41'5 9.7
2018-Jan-05 16:30N 45°06' E 012°39'5 9.9
2018-Jan-05 16:00N 45°09' E 012°34'510.4
2018-Jan-05 15:30N 45°11' E 012°27'510.7
2018-Jan-05 14:59N 45°14' E 012°20'3 5.8
2018-Jan-05 14:30N 45°13' E 012°16'1 2.0
2018-Jan-05 13:58N 45°12' E 012°16'0 0.0
2018-Jan-05 13:28N 45°12' E 012°16'0 0.0
2018-Jan-05 12:58N 45°12' E 012°16'0 0.0
2018-Jan-05 12:28N 45°12' E 012°16'0 0.0
2018-Jan-05 11:58N 45°12' E 012°16'0 0.0
2018-Jan-05 11:28N 45°12' E 012°16'0 0.0
2018-Jan-05 10:58N 45°12' E 012°16'0 0.0
2018-Jan-05 10:29N 45°12' E 012°16'0 0.0
2018-Jan-05 09:59N 45°12' E 012°16'0 0.0
2018-Jan-05 09:28N 45°12' E 012°16'0 0.0
2018-Jan-05 08:58N 45°12' E 012°16'0 0.0
2018-Jan-05 08:28N 45°12' E 012°16'0 0.0
2018-Jan-05 07:58N 45°12' E 012°16'0 0.0
2018-Jan-05 07:28N 45°12' E 012°16'0 0.0
2018-Jan-05 06:58N 45°12' E 012°16'0 0.0
2018-Jan-05 06:28N 45°12' E 012°16'0 0.0
2018-Jan-05 05:58N 45°12' E 012°16'0 0.0
2018-Jan-05 05:28N 45°12' E 012°16'0 0.0
2018-Jan-05 04:58N 45°12' E 012°16'0 0.0
2018-Jan-05 04:28N 45°12' E 012°16'0 0.0
2018-Jan-05 03:58N 45°12' E 012°16'0 0.0
2018-Jan-05 03:28N 45°12' E 012°16'0 0.0
2018-Jan-05 02:58N 45°12' E 012°16'0 0.0
2018-Jan-05 02:28N 45°12' E 012°16'0 0.0
2018-Jan-05 01:58N 45°12' E 012°16'0 0.0
2018-Jan-05 01:28N 45°12' E 012°16'0 0.0
2018-Jan-05 00:58N 45°12' E 012°16'0 0.0
2018-Jan-05 00:28N 45°12' E 012°16'0 0.0
2018-Jan-04 23:58N 45°12' E 012°16'0 0.0
2018-Jan-04 23:28N 45°12' E 012°16'0 0.0
2018-Jan-04 22:58N 45°12' E 012°16'0 0.0
2018-Jan-04 22:28N 45°12' E 012°16'0 0.0
2018-Jan-04 21:58N 45°12' E 012°16'0 0.0
2018-Jan-04 21:25N 45°12' E 012°16'0 0.0
2018-Jan-04 20:55N 45°12' E 012°16'0 0.0
2018-Jan-04 20:22N 45°12' E 012°16'0 0.0
2018-Jan-04 19:55N 45°12' E 012°16'0 0.0
2018-Jan-04 19:28N 45°13' E 012°16'0 0.0
2018-Jan-04 18:58N 45°12' E 012°16'0 0.0
2018-Jan-04 18:28N 45°12' E 012°16'0 0.0
2018-Jan-04 17:55N 45°12' E 012°16'0 0.0
2018-Jan-04 17:25N 45°12' E 012°16'0 0.0
2018-Jan-04 16:55N 45°12' E 012°16'0 0.0
2018-Jan-04 16:28N 45°12' E 012°16'0 0.0
2018-Jan-04 15:58N 45°12' E 012°16'0 0.0
2018-Jan-04 15:28N 45°12' E 012°16'0 0.0
2018-Jan-04 14:58N 45°12' E 012°16'0 0.0
2018-Jan-04 13:55N 45°12' E 012°16'0 0.0
2018-Jan-04 13:16N 45°13' E 012°16'0 0.0
2018-Jan-04 12:52N 45°13' E 012°16'0 0.0
2018-Jan-04 12:28N 45°12' E 012°16'0 0.0
2018-Jan-04 11:58N 45°12' E 012°16'0 0.0
2018-Jan-04 11:28N 45°12' E 012°16'0 0.2
2018-Jan-04 11:00N 45°13' E 012°16'2 3.5
2018-Jan-04 10:29N 45°14' E 012°17'2 3.8
2018-Jan-04 10:00N 45°14' E 012°20'2 3.8
2018-Jan-04 09:30N 45°14' E 012°23'0 0.1
2018-Jan-04 09:00N 45°14' E 012°23'0 0.0
2018-Jan-04 08:27N 45°14' E 012°23'0 0.0
2018-Jan-04 07:48N 45°14' E 012°23'0 0.0
2018-Jan-04 07:30N 45°14' E 012°23'0 0.0
2018-Jan-04 07:00N 45°14' E 012°23'0 0.1
2018-Jan-04 06:30N 45°14' E 012°23'0 0.0
2018-Jan-04 06:00N 45°14' E 012°23'0 0.0
2018-Jan-04 05:30N 45°14' E 012°23'0 0.0
2018-Jan-04 04:54N 45°14' E 012°23'0 0.0
2018-Jan-04 04:30N 45°14' E 012°23'0 0.0
2018-Jan-04 04:00N 45°14' E 012°23'0 0.0
2018-Jan-04 03:27N 45°14' E 012°23'0 0.0
2018-Jan-04 03:00N 45°14' E 012°23'0 0.0
2018-Jan-04 02:30N 45°14' E 012°23'0 0.0
2018-Jan-04 01:57N 45°14' E 012°23'0 0.0
2018-Jan-04 01:30N 45°14' E 012°23'0 0.0
2018-Jan-04 00:57N 45°14' E 012°23'0 0.0
2018-Jan-04 00:24N 45°14' E 012°23'0 0.0
2018-Jan-03 23:54N 45°14' E 012°23'0 0.0
2018-Jan-03 23:30N 45°14' E 012°23'0 0.0
2018-Jan-03 23:00N 45°14' E 012°23'0 0.4
2018-Jan-03 22:30N 45°14' E 012°23'4 7.9
2018-Jan-03 22:00N 45°15' E 012°28'4 8.4
2018-Jan-03 21:30N 45°15' E 012°34'5 9.6
2018-Jan-03 21:00N 45°13' E 012°40'5 9.3
2018-Jan-03 20:30N 45°10' E 012°46'5 9.1
2018-Jan-03 20:00N 45°08' E 012°51'4 8.9
2018-Jan-03 19:30N 45°06' E 012°57'5 9.2
2018-Jan-03 19:00N 45°05' E 013°03'5 9.6
2018-Jan-03 18:30N 45°03' E 013°10'5 9.6
2018-Jan-03 18:00N 45°02' E 013°16'4 8.7
2018-Jan-03 17:30N 44°60' E 013°21'5 9.4
2018-Jan-03 17:00N 44°55' E 013°24'5 9.8
2018-Jan-03 16:30N 44°51' E 013°27'5 9.7
2018-Jan-03 16:00N 44°47' E 013°31'5 9.8
2018-Jan-03 15:30N 44°43' E 013°35'5 9.5
2018-Jan-03 15:00N 44°39' E 013°39'5 9.6
2018-Jan-03 14:30N 44°35' E 013°42'6 9.7
2018-Jan-03 13:53N 44°30' E 013°47'4 9.6
2018-Jan-03 13:30N 44°27' E 013°50'5 9.6
2018-Jan-03 13:00N 44°23' E 013°54'7 9.4
2018-Jan-03 12:17N 44°17' E 013°59'3 9.5
2018-Jan-03 12:00N 44°15' E 014°01'  
2018-Jan-01 03:26N 37°41' E 016°15'1410.2
2018-Jan-01 02:06N 37°30' E 016°04'210.4
2018-Jan-01 01:52N 37°29' E 016°02'88 9.6
2017-Dec-31 16:42N 36°26' E 014°44'2 9.4
2017-Dec-31 16:30N 36°25' E 014°42'5 9.5
2017-Dec-31 16:00N 36°22' E 014°37'5 9.4
2017-Dec-31 15:30N 36°20' E 014°32'5 9.3
2017-Dec-31 15:00N 36°17' E 014°27'5 9.4
2017-Dec-31 14:30N 36°15' E 014°23'5 9.1
2017-Dec-31 14:00N 36°12' E 014°18'5 8.8
2017-Dec-31 13:30N 36°10' E 014°13'4 8.7
2017-Dec-31 13:00N 36°08' E 014°09'4 8.5
2017-Dec-31 12:30N 36°05' E 014°04'4 8.7
2017-Dec-31 12:00N 36°02' E 014°00'  

Dump ship's entire track history